createdAt,value
2023-01-02T00:00:43.726Z,4.80
2023-01-02T00:03:10.203Z,5.50
2023-01-02T00:05:36.823Z,5.57
2023-01-02T00:08:03.275Z,6.03
2023-01-02T00:10:29.754Z,5.60
2023-01-02T00:12:56.163Z,7.40
2023-01-02T00:15:22.467Z,7.60
2023-01-02T00:17:48.790Z,5.10
2023-01-02T00:20:15.265Z,3.80
2023-01-02T00:22:41.568Z,3.85
2023-01-02T00:25:08.077Z,4.40
2023-01-02T00:27:34.587Z,2.40
2023-01-02T00:30:00.982Z,4.88
2023-01-02T00:32:27.325Z,4.57
2023-01-02T00:34:53.831Z,6.03
2023-01-02T00:37:20.122Z,3.25
2023-01-02T00:39:46.549Z,4.47
2023-01-02T00:42:12.854Z,4.05
2023-01-02T00:44:39.183Z,6.85
2023-01-02T00:47:05.598Z,5.13
2023-01-02T00:49:31.935Z,4.03
2023-01-02T00:51:58.269Z,3.65
2023-01-02T00:54:24.698Z,6.03
2023-01-02T00:56:50.989Z,3.97
2023-01-02T00:59:17.413Z,5.22
2023-01-02T01:01:43.857Z,8.63
2023-01-02T01:04:10.249Z,3.42
2023-01-02T01:06:36.552Z,6.28
2023-01-02T01:09:02.864Z,5.38
2023-01-02T01:11:29.212Z,5.43
2023-01-02T01:13:55.494Z,5.32
2023-01-02T01:16:21.949Z,8.65
2023-01-02T01:18:48.516Z,4.40
2023-01-02T01:21:16.324Z,4.53
2023-01-02T01:23:42.728Z,4.25
2023-01-02T01:26:10.875Z,4.47
2023-01-02T01:28:37.664Z,5.65
2023-01-02T01:31:05.233Z,3.72
2023-01-02T01:33:32.219Z,5.15
2023-01-02T01:36:02.827Z,6.55
2023-01-02T01:38:29.174Z,2.42
2023-01-02T01:40:55.770Z,6.53
2023-01-02T01:43:40.563Z,8.38
2023-01-02T01:46:13.674Z,5.50
2023-01-02T01:48:40.037Z,5.00
2023-01-02T01:51:06.778Z,4.65
2023-01-02T01:53:33.924Z,4.30
2023-01-02T01:56:02.064Z,4.25
2023-01-02T01:58:30.434Z,7.05
2023-01-02T02:00:56.789Z,6.57
2023-01-02T02:03:25.153Z,3.40
2023-01-02T02:05:51.510Z,5.82
2023-01-02T02:08:20.758Z,6.50
2023-01-02T02:10:47.985Z,8.00
2023-01-02T02:13:14.480Z,3.55
2023-01-02T02:16:00.771Z,6.20
2023-01-02T02:18:39.210Z,6.00
2023-01-02T02:21:23.832Z,4.32
2023-01-02T02:24:02.097Z,6.80
2023-01-02T02:26:28.474Z,4.18
2023-01-02T02:29:10.397Z,4.03
2023-01-02T02:31:44.541Z,3.05
2023-01-02T02:34:13.620Z,4.80
2023-01-02T02:36:42.795Z,6.22
2023-01-02T02:39:17.696Z,4.82
2023-01-02T02:41:46.860Z,6.30
2023-01-02T02:44:32.209Z,5.82
2023-01-02T02:47:02.643Z,5.65
2023-01-02T02:49:28.933Z,4.50
2023-01-02T02:52:15.548Z,6.85
2023-01-02T02:54:56.417Z,4.72
2023-01-02T02:57:23.785Z,4.13
2023-01-02T02:59:50.181Z,5.00
2023-01-02T03:02:17.518Z,5.55
2023-01-02T03:04:48.648Z,5.07
2023-01-02T03:07:24.162Z,5.00
2023-01-02T03:09:56.622Z,4.10
2023-01-02T03:12:22.961Z,4.35
2023-01-02T03:14:49.284Z,3.47
2023-01-02T03:17:23.630Z,4.38
2023-01-02T03:19:52.540Z,5.43
2023-01-02T03:22:20.967Z,4.68
2023-01-02T03:24:48.812Z,3.65
2023-01-02T03:27:17.712Z,4.03
2023-01-02T03:29:47.417Z,3.65
2023-01-02T03:32:17.159Z,5.38
2023-01-02T03:34:45.684Z,8.15
2023-01-02T03:37:14.834Z,3.88
2023-01-02T03:39:47.182Z,4.50
2023-01-02T03:42:16.549Z,3.85
2023-01-02T03:44:47.262Z,6.55
2023-01-02T03:47:16.707Z,5.05
2023-01-02T03:49:45.317Z,3.58
2023-01-02T03:52:11.662Z,6.85
2023-01-02T03:54:38.158Z,2.25
2023-01-02T03:57:14.760Z,6.88
2023-01-02T03:59:47.382Z,4.30
2023-01-02T04:02:18.947Z,4.05
2023-01-02T04:04:56.489Z,4.90
2023-01-02T04:07:31.547Z,5.30
2023-01-02T04:09:59.134Z,3.67
2023-01-02T04:12:26.739Z,4.13
2023-01-02T04:14:57.937Z,4.35
2023-01-02T04:17:25.686Z,5.57
2023-01-02T04:20:02.648Z,6.47
2023-01-02T04:22:31.909Z,6.28
2023-01-02T04:25:03.310Z,5.22
2023-01-02T04:27:33.287Z,3.25
2023-01-02T04:29:59.654Z,3.97
2023-01-02T04:32:32.663Z,6.95
2023-01-02T04:34:59.981Z,3.92
2023-01-02T04:37:31.211Z,7.45
2023-01-02T04:39:59.748Z,7.20
2023-01-02T04:42:26.182Z,5.45
2023-01-02T04:44:52.687Z,7.40
2023-01-02T04:47:21.976Z,4.22
2023-01-02T04:49:48.452Z,4.45
2023-01-02T04:52:14.811Z,8.27
2023-01-02T04:54:41.114Z,3.50
2023-01-02T04:57:07.636Z,4.65
2023-01-02T04:59:33.971Z,3.97
2023-01-02T05:02:00.632Z,7.90
2023-01-02T05:04:26.998Z,7.32
2023-01-02T05:06:53.273Z,4.30
2023-01-02T05:09:19.587Z,2.95
2023-01-02T05:11:46.057Z,6.22
2023-01-02T05:14:12.460Z,3.85
2023-01-02T05:16:38.767Z,6.93
2023-01-02T05:19:05.106Z,3.58
2023-01-02T05:21:49.913Z,4.72
2023-01-02T05:24:16.214Z,4.97
2023-01-02T05:26:42.608Z,10.30
2023-01-02T05:29:08.970Z,3.60
2023-01-02T05:31:35.336Z,4.35
2023-01-02T05:34:01.665Z,5.18
2023-01-02T05:36:28.442Z,3.08
2023-01-02T05:38:55.108Z,2.30
2023-01-02T05:41:22.036Z,4.78
2023-01-02T05:43:48.564Z,3.22
2023-01-02T05:46:16.628Z,3.35
2023-01-02T05:48:43.613Z,1.60
2023-01-02T05:51:10.744Z,2.90
2023-01-02T05:53:37.388Z,3.90
2023-01-02T05:56:08.141Z,4.25
2023-01-02T05:58:35.336Z,3.50
2023-01-02T06:01:09.150Z,2.58
2023-01-02T06:03:35.905Z,2.58
2023-01-02T06:06:09.325Z,2.30
2023-01-02T06:08:35.846Z,2.10
2023-01-02T06:11:03.007Z,4.40
2023-01-02T06:13:30.150Z,5.32
2023-01-02T06:15:57.132Z,3.55
2023-01-02T06:18:23.741Z,4.35
2023-01-02T06:20:50.221Z,2.72
2023-01-02T06:23:16.554Z,2.78
2023-01-02T06:25:42.870Z,5.70
2023-01-02T06:28:09.201Z,13.88
2023-01-02T06:30:35.482Z,11.90
2023-01-02T06:33:01.789Z,6.65
2023-01-02T06:35:28.108Z,5.78
2023-01-02T06:37:54.403Z,6.80
2023-01-02T06:40:21.261Z,5.40
2023-01-02T06:42:47.623Z,3.22
2023-01-02T06:45:14.034Z,5.32
2023-01-02T06:47:40.327Z,3.80
2023-01-02T06:50:06.821Z,4.75
2023-01-02T06:52:33.218Z,2.88
2023-01-02T06:54:59.661Z,7.85
2023-01-02T06:57:26.158Z,3.30
2023-01-02T06:59:52.654Z,5.13
2023-01-02T07:02:19.001Z,5.28
2023-01-02T07:04:45.451Z,5.22
2023-01-02T07:07:11.736Z,2.65
2023-01-02T07:09:38.027Z,1.58
2023-01-02T07:12:04.567Z,9.77
2023-01-02T07:14:30.930Z,5.15
2023-01-02T07:16:57.253Z,3.78
2023-01-02T07:19:23.668Z,4.00
2023-01-02T07:21:50.125Z,3.35
2023-01-02T07:24:16.448Z,4.57
2023-01-02T07:26:42.879Z,6.50
2023-01-02T07:29:09.300Z,2.95
2023-01-02T07:31:35.810Z,3.65
2023-01-02T07:34:02.277Z,6.13
2023-01-02T07:36:28.592Z,4.68
2023-01-02T07:38:55.659Z,5.78
2023-01-02T07:41:23.319Z,4.07
2023-01-02T07:43:49.850Z,1.90
2023-01-02T07:46:17.714Z,2.53
2023-01-02T07:48:44.746Z,3.55
2023-01-02T07:51:11.236Z,5.88
2023-01-02T07:53:38.672Z,3.47
2023-01-02T07:56:05.657Z,5.55
2023-01-02T07:58:32.066Z,4.45
2023-01-02T08:01:05.113Z,1.42
2023-01-02T08:03:32.548Z,3.50
2023-01-02T08:06:12.666Z,3.08
2023-01-02T08:08:39.095Z,2.67
2023-01-02T08:11:06.390Z,4.68
2023-01-02T08:13:32.833Z,1.95
2023-01-02T08:16:03.186Z,8.40
2023-01-02T08:18:29.558Z,7.10
2023-01-02T08:20:55.950Z,7.20
2023-01-02T08:23:24.652Z,4.15
2023-01-02T08:25:57.241Z,2.55
2023-01-02T08:28:23.904Z,3.35
2023-01-02T08:30:50.421Z,4.90
2023-01-02T08:33:16.725Z,5.90
2023-01-02T08:35:43.013Z,5.70
2023-01-02T08:38:09.365Z,3.22
2023-01-02T08:40:35.821Z,7.68
2023-01-02T08:43:02.125Z,8.70
2023-01-02T08:45:28.420Z,5.20
2023-01-02T08:47:54.864Z,5.95
2023-01-02T08:50:21.908Z,6.53
2023-01-02T08:52:48.352Z,9.30
2023-01-02T08:55:14.713Z,9.32
2023-01-02T08:57:41.078Z,6.50
2023-01-02T09:00:07.766Z,7.47
2023-01-02T09:02:34.249Z,4.90
2023-01-02T09:05:00.749Z,10.95
2023-01-02T09:07:27.214Z,6.85
2023-01-02T09:09:53.529Z,8.70
2023-01-02T09:12:19.893Z,7.28
2023-01-02T09:14:46.190Z,7.55
2023-01-02T09:17:12.517Z,4.28
2023-01-02T09:19:38.837Z,9.15
2023-01-02T09:22:05.725Z,4.25
2023-01-02T09:24:32.050Z,5.10
2023-01-02T09:26:58.374Z,4.22
2023-01-02T09:29:24.770Z,3.80
2023-01-02T09:31:51.078Z,3.28
2023-01-02T09:34:17.511Z,7.05
2023-01-02T09:36:43.881Z,5.78
2023-01-02T09:39:10.299Z,4.45
2023-01-02T09:41:38.257Z,6.20
2023-01-02T09:44:11.921Z,4.50
2023-01-02T09:46:38.317Z,5.93
2023-01-02T09:49:04.754Z,6.65
2023-01-02T09:51:31.588Z,7.78
2023-01-02T09:53:58.058Z,11.35
2023-01-02T09:56:31.906Z,2.50
2023-01-02T09:59:10.861Z,4.78
2023-01-02T10:01:39.939Z,3.35
2023-01-02T10:04:07.018Z,5.70
2023-01-02T10:06:44.906Z,9.05
2023-01-02T10:09:11.187Z,7.75
2023-01-02T10:11:51.063Z,13.50
2023-01-02T10:14:46.787Z,6.90
2023-01-02T10:17:15.507Z,6.32
2023-01-02T10:19:44.822Z,3.13
2023-01-02T10:22:13.748Z,11.43
2023-01-02T10:25:06.509Z,5.28
2023-01-02T10:27:43.479Z,5.47
2023-01-02T10:30:18.959Z,6.15
2023-01-02T10:32:48.065Z,4.55
2023-01-02T10:35:22.081Z,4.03
2023-01-02T10:37:48.386Z,3.40
2023-01-02T10:40:14.779Z,2.30
2023-01-02T10:42:41.542Z,2.45
2023-01-02T10:45:13.089Z,2.60
2023-01-02T10:47:39.687Z,4.10
2023-01-02T10:50:07.886Z,2.55
2023-01-02T10:52:38.201Z,2.47
2023-01-02T10:55:04.716Z,5.05
2023-01-02T10:57:39.366Z,2.00
2023-01-02T11:00:06.113Z,2.47
2023-01-02T11:02:39.876Z,3.65
2023-01-02T11:05:08.357Z,7.07
2023-01-02T11:07:38.029Z,5.72
2023-01-02T11:10:05.022Z,4.85
2023-01-02T11:12:32.765Z,3.47
2023-01-02T11:15:12.697Z,2.45
2023-01-02T11:17:41.171Z,4.40
2023-01-02T11:20:18.969Z,4.10
2023-01-02T11:22:45.374Z,3.03
2023-01-02T11:25:32.010Z,5.28
2023-01-02T11:27:59.476Z,3.67
2023-01-02T11:30:44.155Z,3.55
2023-01-02T11:33:13.402Z,4.72
2023-01-02T11:35:39.772Z,7.80
2023-01-02T11:38:12.238Z,3.60
2023-01-02T11:40:50.105Z,4.50
2023-01-02T11:43:36.121Z,3.88
2023-01-02T11:46:06.839Z,4.70
2023-01-02T11:48:33.250Z,3.10
2023-01-02T11:50:59.572Z,3.60
2023-01-02T11:53:38.602Z,6.70
2023-01-02T11:56:14.928Z,3.55
2023-01-02T11:58:47.240Z,4.07
2023-01-02T12:01:13.916Z,4.00
2023-01-02T12:03:40.795Z,2.70
2023-01-02T12:06:15.315Z,2.30
2023-01-02T12:09:08.225Z,5.25
2023-01-02T12:11:46.651Z,3.30
2023-01-02T12:14:18.082Z,2.60
2023-01-02T12:16:58.721Z,5.20
2023-01-02T12:19:32.801Z,4.40
2023-01-02T12:22:06.383Z,2.38
2023-01-02T12:24:38.613Z,2.42
2023-01-02T12:27:08.743Z,1.60
2023-01-02T12:29:48.170Z,1.85
2023-01-02T12:32:27.504Z,4.20
2023-01-02T12:35:12.771Z,4.25
2023-01-02T12:38:08.750Z,2.28
2023-01-02T12:40:35.087Z,3.92
2023-01-02T12:43:10.757Z,3.20
2023-01-02T12:45:51.870Z,5.15
2023-01-02T12:48:36.888Z,2.55
2023-01-02T12:51:16.941Z,3.88
2023-01-02T12:53:46.095Z,1.92
2023-01-02T12:56:19.416Z,1.50
2023-01-02T12:59:04.392Z,1.02
2023-01-02T13:01:38.839Z,2.45
2023-01-02T13:04:09.647Z,3.65
2023-01-02T13:06:43.601Z,3.13
2023-01-02T13:09:16.906Z,0.88
2023-01-02T13:11:48.243Z,0.98
2023-01-02T13:14:20.082Z,1.98
2023-01-02T13:16:52.065Z,1.27
2023-01-02T13:21:59.359Z,1.75
2023-01-02T13:24:26.063Z,2.85
2023-01-02T13:26:53.503Z,1.60
2023-01-02T13:29:21.823Z,5.03
2023-01-02T13:31:49.544Z,1.38
2023-01-02T13:34:28.837Z,1.45
2023-01-02T13:36:59.645Z,2.20
2023-01-02T13:39:28.263Z,0.95
2023-01-02T13:42:20.557Z,1.02
2023-01-02T13:47:16.472Z,1.17
2023-01-02T13:49:57.722Z,0.80
2023-01-02T13:52:24.117Z,0.40
2023-01-02T13:55:25.312Z,0.40
2023-01-02T13:58:20.060Z,0.77
2023-01-02T14:01:09.555Z,1.70
2023-01-02T14:03:36.443Z,1.30
2023-01-02T14:06:05.499Z,1.77
2023-01-02T14:08:39.090Z,0.95
2023-01-02T14:11:05.375Z,0.55
2023-01-02T14:13:37.219Z,1.98
2023-01-02T14:16:22.402Z,0.68
2023-01-02T14:19:07.666Z,0.88
2023-01-02T14:21:38.705Z,2.72
2023-01-02T14:24:17.731Z,1.90
2023-01-02T14:26:51.030Z,1.15
2023-01-02T14:29:17.337Z,1.02
2023-01-02T14:31:43.632Z,0.73
2023-01-02T14:34:12.040Z,1.05
2023-01-02T14:36:43.088Z,1.05
2023-01-02T14:39:19.507Z,3.30
2023-01-02T14:42:10.436Z,0.93
2023-01-02T14:44:41.119Z,1.70
2023-01-02T14:47:12.634Z,0.73
2023-01-02T14:49:39.613Z,2.13
2023-01-02T14:52:08.075Z,1.35
2023-01-02T14:54:48.897Z,1.70
2023-01-02T14:57:27.677Z,2.40
2023-01-02T14:59:55.730Z,1.52
2023-01-02T15:02:26.780Z,0.90
2023-01-02T15:04:55.709Z,0.73
2023-01-02T15:07:26.862Z,1.10
2023-01-02T15:09:55.893Z,1.27
2023-01-02T15:12:45.398Z,5.93
2023-01-02T15:15:13.009Z,7.75
2023-01-02T15:17:39.746Z,4.05
2023-01-02T15:20:06.841Z,2.42
2023-01-02T15:22:33.391Z,2.58
2023-01-02T15:24:59.676Z,3.13
2023-01-02T15:27:30.479Z,1.20
2023-01-02T15:29:58.050Z,2.70
2023-01-02T15:32:28.438Z,3.47
2023-01-02T15:35:10.248Z,2.28
2023-01-02T15:37:41.438Z,3.53
2023-01-02T15:40:13.771Z,1.60
2023-01-02T15:42:58.977Z,1.75
2023-01-02T15:45:26.227Z,1.67
2023-01-02T15:47:52.670Z,1.10
2023-01-02T15:50:23.894Z,2.97
2023-01-02T15:52:54.218Z,1.33
2023-01-02T15:55:20.958Z,1.02
2023-01-02T15:57:49.039Z,2.25
2023-01-02T16:00:32.223Z,2.63
2023-01-02T16:02:58.725Z,2.08
2023-01-02T16:05:25.289Z,1.20
2023-01-02T16:07:52.862Z,2.40
2023-01-02T16:10:21.155Z,7.75
2023-01-02T16:12:54.521Z,2.42
2023-01-02T16:15:23.586Z,3.63
2023-01-02T16:17:50.833Z,5.10
2023-01-02T16:20:18.579Z,4.50
2023-01-02T16:22:46.996Z,3.13
2023-01-02T16:25:18.983Z,3.00
2023-01-02T16:30:16.083Z,3.20
2023-01-02T16:32:46.951Z,4.57
2023-01-02T16:35:26.581Z,1.90
2023-01-02T16:37:53.980Z,2.03
2023-01-02T16:40:20.288Z,1.50
2023-01-02T16:43:08.047Z,2.50
2023-01-02T16:45:35.907Z,1.23
2023-01-02T16:48:03.594Z,1.55
2023-01-02T16:50:30.127Z,1.95
2023-01-02T16:53:02.897Z,2.40
2023-01-02T16:55:29.251Z,2.70
2023-01-02T16:57:55.646Z,1.55
2023-01-02T17:00:22.887Z,3.97
2023-01-02T17:02:49.701Z,3.17
2023-01-02T17:05:17.947Z,4.15
2023-01-02T17:07:44.866Z,2.60
2023-01-02T17:10:11.245Z,1.40
2023-01-02T17:12:43.394Z,3.05
2023-01-02T17:15:12.590Z,2.17
2023-01-02T17:17:39.543Z,2.58
2023-01-02T17:20:06.713Z,2.92
2023-01-02T17:22:34.938Z,2.78
2023-01-02T17:25:02.256Z,1.60
2023-01-02T17:27:28.585Z,4.32
2023-01-02T17:29:54.979Z,5.85
2023-01-02T17:32:21.297Z,5.15
2023-01-02T17:34:48.339Z,4.47
2023-01-02T17:37:16.600Z,2.67
2023-01-02T17:39:43.490Z,3.55
2023-01-02T17:42:11.506Z,3.70
2023-01-02T17:44:38.442Z,1.58
2023-01-02T17:47:38.959Z,5.13
2023-01-02T17:49:51.194Z,4.65
2023-01-02T17:52:17.689Z,2.60
2023-01-02T17:54:44.457Z,3.00
2023-01-02T17:57:11.379Z,2.30
2023-01-02T17:59:38.941Z,1.88
2023-01-02T18:02:05.605Z,1.40
2023-01-02T18:04:32.006Z,1.60
2023-01-02T18:06:58.458Z,1.65
2023-01-02T18:09:24.757Z,1.45
2023-01-02T18:11:51.107Z,1.20
2023-01-02T18:14:19.033Z,2.83
2023-01-02T18:16:46.416Z,1.30
2023-01-02T18:19:14.236Z,1.30
2023-01-02T18:21:41.065Z,1.10
2023-01-02T18:24:11.358Z,0.93
2023-01-02T18:26:37.748Z,1.38
2023-01-02T18:29:10.021Z,1.13
2023-01-02T18:31:40.573Z,0.82
2023-01-02T18:34:46.627Z,1.52
2023-01-02T18:37:06.503Z,1.65
2023-01-02T18:39:39.163Z,1.83
2023-01-02T18:42:08.444Z,4.10
2023-01-02T18:44:34.816Z,3.80
2023-01-02T18:47:06.545Z,2.50
2023-01-02T18:49:39.535Z,2.45
2023-01-02T18:52:05.824Z,1.05
2023-01-02T18:54:32.452Z,1.50
2023-01-02T18:57:11.230Z,0.57
2023-01-02T18:59:37.682Z,0.98
2023-01-02T19:02:12.906Z,1.67
2023-01-02T19:04:40.173Z,1.25
2023-01-02T19:07:17.041Z,0.80
2023-01-02T19:09:43.440Z,1.15
2023-01-02T19:12:34.651Z,1.00
2023-01-02T19:15:20.901Z,1.40
2023-01-02T19:17:48.550Z,1.77
2023-01-02T19:20:14.941Z,1.63
2023-01-02T19:22:41.287Z,1.65
2023-01-02T19:25:17.035Z,1.45
2023-01-02T19:27:43.336Z,2.70
2023-01-02T19:30:29.939Z,1.73
2023-01-02T19:32:56.866Z,1.40
2023-01-02T19:35:26.084Z,1.20
2023-01-02T19:37:52.395Z,1.10
2023-01-02T19:40:22.738Z,0.90
2023-01-02T19:42:49.668Z,0.93
2023-01-02T19:45:20.149Z,1.48
2023-01-02T19:47:46.786Z,0.50
2023-01-02T19:50:14.651Z,0.68
2023-01-02T19:52:41.138Z,1.25
2023-01-02T19:55:08.236Z,0.90
2023-01-02T19:57:37.308Z,1.02
2023-01-02T20:00:06.607Z,1.00
2023-01-02T20:02:33.414Z,0.70
2023-01-02T20:04:59.810Z,0.70
2023-01-02T20:07:26.544Z,0.95
2023-01-02T20:09:53.175Z,1.15
2023-01-02T20:12:37.851Z,1.13
2023-01-02T20:15:11.610Z,1.17
2023-01-02T20:17:38.573Z,1.20
2023-01-02T20:20:06.027Z,0.80
2023-01-02T20:22:32.462Z,1.10
2023-01-02T20:24:59.169Z,1.00
2023-01-02T20:27:25.846Z,1.20
2023-01-02T20:29:55.283Z,0.90
2023-01-02T20:32:22.013Z,1.35
2023-01-02T20:34:48.369Z,0.73
2023-01-02T20:37:14.665Z,0.73
2023-01-02T20:39:41.026Z,2.45
2023-01-02T20:42:13.010Z,1.08
2023-01-02T20:44:40.243Z,1.42
2023-01-02T20:47:06.584Z,1.25
2023-01-02T20:49:32.970Z,0.88
2023-01-02T20:51:59.430Z,0.93
2023-01-02T20:54:26.290Z,0.98
2023-01-02T20:56:53.346Z,0.82
2023-01-02T20:59:20.239Z,0.70
2023-01-02T21:01:46.958Z,0.60
2023-01-02T21:04:13.561Z,0.98
2023-01-02T21:06:40.088Z,1.10
2023-01-02T21:09:06.452Z,0.73
2023-01-02T21:11:33.251Z,0.80
2023-01-02T21:14:01.430Z,0.57
2023-01-02T21:16:28.259Z,1.52
2023-01-02T21:18:54.926Z,0.65
2023-01-02T21:21:21.980Z,1.35
2023-01-02T21:23:49.114Z,0.82
2023-01-02T21:26:16.409Z,2.25
2023-01-02T21:28:47.420Z,2.13
2023-01-02T21:31:14.372Z,2.58
2023-01-02T21:33:40.870Z,1.00
2023-01-02T21:36:08.740Z,0.70
2023-01-02T21:38:36.188Z,0.55
2023-01-02T21:41:21.636Z,0.55
2023-01-02T21:43:48.332Z,0.40
2023-01-02T21:46:14.820Z,0.45
2023-01-02T21:48:41.271Z,0.60
2023-01-02T21:51:08.046Z,1.05
2023-01-02T21:53:34.459Z,1.13
2023-01-02T21:56:00.821Z,0.82
2023-01-02T21:58:27.215Z,0.70
2023-01-02T22:00:53.666Z,0.60
2023-01-02T22:03:20.087Z,1.20
2023-01-02T22:05:46.600Z,0.90
2023-01-02T22:08:13.037Z,0.70
2023-01-02T22:10:39.413Z,0.98
2023-01-02T22:13:05.781Z,1.20
2023-01-02T22:15:32.078Z,0.73
2023-01-02T22:17:58.459Z,0.77
2023-01-02T22:20:24.821Z,0.98
2023-01-02T22:22:51.143Z,1.75
2023-01-02T22:25:17.525Z,0.73
2023-01-02T22:27:43.825Z,0.70
2023-01-02T22:30:23.382Z,0.90
2023-01-02T22:35:18.717Z,0.57
2023-01-02T22:37:45.178Z,0.40
2023-01-02T22:40:11.782Z,0.50
2023-01-02T22:43:05.612Z,0.50
2023-01-02T22:45:37.220Z,0.80
2023-01-02T22:48:05.606Z,0.65
2023-01-02T22:50:36.285Z,0.40
2023-01-02T22:53:02.881Z,0.52
2023-01-02T22:55:29.220Z,1.33
2023-01-02T22:57:55.630Z,0.30
2023-01-02T23:00:23.104Z,0.40
2023-01-02T23:02:50.113Z,0.30
2023-01-02T23:05:18.002Z,0.40
2023-01-02T23:07:44.854Z,0.50
2023-01-02T23:10:11.511Z,0.73
2023-01-02T23:12:37.939Z,0.30
2023-01-02T23:15:04.897Z,0.40
2023-01-02T23:17:49.786Z,0.38
2023-01-02T23:20:16.257Z,0.40
2023-01-02T23:22:42.779Z,0.55
2023-01-02T23:25:09.253Z,1.35
2023-01-02T23:27:35.631Z,0.40
2023-01-02T23:30:02.107Z,1.40
2023-01-02T23:32:28.467Z,0.60
2023-01-02T23:34:54.826Z,0.80
2023-01-02T23:37:21.284Z,0.60
2023-01-02T23:39:47.651Z,2.35
2023-01-02T23:42:14.118Z,1.10
2023-01-02T23:44:41.076Z,0.60
2023-01-02T23:47:10.864Z,1.23
2023-01-02T23:49:40.993Z,0.93
2023-01-02T23:52:07.392Z,0.80
2023-01-02T23:54:33.685Z,0.40
2023-01-02T23:57:00.126Z,0.60
2023-01-02T23:59:26.678Z,0.50
